ایروان, ارمنستان

05:04 AM +04 on مه 28, 2017 (GMT +0400)
Zvartnots | | Change Station

Elev 2838 ft 40.15 °N, 44.40 °E | Updated 34 minutes ago

صاف
صاف
50 °F
Feels Like 50 °F
N
2
باد متغير باد from شمال

امروز
High -- | Low -- °F
--% Chance of Precip.
دیروز
High -- | Low -- °F
Precip. -- در
فشار 29.95 در
ديد 6.2 مايل، ميل (در برابر كيلومتر
ابری
قطره شبنم 46 °F
رطوبت 87%
بارش باران 0.00 در
برف عمیق Not available.
5:35 AM 8:22 PM
Waxing Crescent, 7% visible
METAR UDYZ 280030Z 35002KT 9999 NSC 10/08 Q1014 R09/010070 NOSIG
فشار 29.95 در
ديد 6.2 مايل، ميل (در برابر كيلومتر
ابری
قطره شبنم 46 °F
رطوبت 87%
بارش باران 0.00 در
برف عمیق Not available.
5:35 AM 8:22 PM
Waxing Crescent, 7% visible
METAR UDYZ 280030Z 35002KT 9999 NSC 10/08 Q1014 R09/010070 NOSIG

Get Severe Weather Alerts

Thanks for signing up!

Be on the lookout for a verification email in your inbox.

You'll start receiving the daily forecast at 6 AM.

×

10-Day Weather Forecast

×

Almanac

ستاره شناسی

May. 28, 2017 Rise Set
وقت حقیقی
تاریک و روشن اجتماعی
تاریک روشن دریایی
شفق و فلق نجومی
ماه
میزان روشنایی روز
طول روز
Tomorrow will be .
, % of the Moon is Illuminated

Today's Extremes

Country Highs Country Lows

Community

WunderPhotos

Category 6

Welcome to Category 6. This is the collective home for Weather Underground's featured writeups by Dr. Jeff Masters (right), Bob Henson (left), Chris Burt, and other regular contributors.

Nearby

تمیزی هوا

  تمیزی هوا AQ Index آلاینده
Not available.

عمق برف

Station Depth Elevation

Earthquake Activity

شهر Distance Mag. Time & Date
Minimum magnitude displayed is 2.5.

Coastal Water Temperatures

منطقه درجه حرارت

Stations

Nearby Weather Stations

Station Location دما باد سرد قطره شبنم رطوبت باد Precip. Elev ارتقا دادن Type